»·PEaware :: N711BB KABQ-KASE

N711BB :: KABQ-KASE

FLIGHT INFORMATION

Flight Status: Arrived
Operator: Privately registered:
United States
More flights under this callsign
Pilot: Klaus K. (15267)
Aircraft: ECLIPSE 500
(EA50)
More flights by this aircraft type
Origin: KABQ Albuquerque Intl Sunport
United States
Destination: KASE Aspen-Pitkin Co/Sardy
United States
More flights between these airports :: More routes between these airports
Route: +JEMEZ3 JEMEZ HAREI DBL
File this flight plan on PilotEdge
Remarks: / L
Altitude:
(Current/Filed)
36,000ft
Speed:
(Current/Filed)
350kts
Departed: 14-Dec-17 01:39 PM
Arrived: 14-Dec-17 02:44 PM
Distance/Time
Traveled:
251nm/1:05
Distance/Time
To Go:
Arrived

Flight Plot

Page will automatically refresh every two minutes.

Flight plan parsing failed; only flown route is shown


Map Options




Map Legend


Flown Route
Filed Route
Departure Airport
Arrival Airport
Navaid (VOR, NDB)
Fix

Horizontal Profiles

Position Reports

Time Latitude Longitude Heading Altitude Ground
Speed
14-Dec-17 13:25 35.035555 -106.619421 137 5318ft 0kts
14-Dec-17 13:26 35.035555 -106.619421 137 5318ft 0kts
14-Dec-17 13:27 35.035555 -106.619421 137 5318ft 0kts
14-Dec-17 13:28 35.035555 -106.619421 137 5318ft 0kts
14-Dec-17 13:29 35.035555 -106.619421 137 5318ft 0kts
14-Dec-17 13:30 35.035555 -106.619421 137 5318ft 0kts
14-Dec-17 13:31 35.035555 -106.619421 137 5318ft 0kts
14-Dec-17 13:32 35.035555 -106.619421 137 5318ft 0kts
14-Dec-17 13:33 35.035555 -106.619421 137 5318ft 0kts
14-Dec-17 13:34 35.035555 -106.619421 137 5318ft 0kts
14-Dec-17 13:35 35.035555 -106.619421 137 5318ft 0kts
14-Dec-17 13:36 35.035555 -106.619421 137 5318ft 0kts
14-Dec-17 13:37 35.035555 -106.619421 137 5318ft 0kts
14-Dec-17 13:38 35.035554 -106.619420 137 5318ft 0kts
14-Dec-17 13:39 35.034389 -106.618235 66 5318ft 9kts
14-Dec-17 13:40 35.036303 -106.615796 46 5318ft 12kts
14-Dec-17 13:41 35.038474 -106.614794 311 5318ft 7kts
14-Dec-17 13:42 35.039928 -106.617067 306 5318ft 8kts
14-Dec-17 13:43 35.042021 -106.620337 300 5318ft 10kts
14-Dec-17 13:44 35.043127 -106.621417 358 5318ft 8kts
14-Dec-17 13:45 35.044331 -106.617728 90 5318ft 62kts
14-Dec-17 13:46 35.042865 -106.584065 88 6920ft 106kts
14-Dec-17 13:47 35.044197 -106.547892 65 8917ft 114kts
14-Dec-17 13:48 35.076759 -106.555488 346 10811ft 141kts
14-Dec-17 13:49 35.110787 -106.593408 321 12429ft 190kts
14-Dec-17 13:50 35.150564 -106.635390 327 14783ft 188kts
14-Dec-17 13:51 35.191355 -106.674253 327 16737ft 201kts
14-Dec-17 13:52 35.237476 -106.715875 327 18655ft 211kts
14-Dec-17 13:53 35.289935 -106.756690 323 19539ft 257kts
14-Dec-17 13:54 35.355328 -106.807334 323 20014ft 298kts
14-Dec-17 13:54 35.415905 -106.853335 330 20486ft 318kts
14-Dec-17 13:56 35.520470 -106.874901 346 21416ft 332kts
14-Dec-17 13:56 35.597061 -106.887289 347 22029ft 336kts
14-Dec-17 13:57 35.687877 -106.901470 346 23087ft 329kts
14-Dec-17 13:59 35.792293 -106.917657 346 24339ft 323kts
14-Dec-17 13:59 35.866775 -106.929230 345 25028ft 325kts
14-Dec-17 14:00 35.956639 -106.937310 356 25924ft 331kts
14-Dec-17 14:01 36.048386 -106.928071 357 26670ft 335kts
14-Dec-17 14:03 36.154796 -106.916488 356 27556ft 335kts
14-Dec-17 14:03 36.231807 -106.907963 356 28191ft 335kts
14-Dec-17 14:04 36.324764 -106.897624 356 28819ft 338kts
14-Dec-17 14:05 36.416687 -106.887314 355 29778ft 329kts
14-Dec-17 14:06 36.506097 -106.877325 355 30810ft 319kts
14-Dec-17 14:07 36.594331 -106.867467 356 31560ft 319kts
14-Dec-17 14:08 36.681826 -106.857604 356 32482ft 311kts
14-Dec-17 14:09 36.763997 -106.848264 355 33718ft 291kts
14-Dec-17 14:10 36.844435 -106.839247 355 34268ft 293kts
14-Dec-17 14:11 36.925552 -106.830068 355 34758ft 296kts
14-Dec-17 14:13 37.007582 -106.820616 355 35243ft 298kts
14-Dec-17 14:14 37.089927 -106.811342 355 35727ft 298kts
14-Dec-17 14:15 37.165769 -106.803102 0 36150ft 299kts
14-Dec-17 14:16 37.249687 -106.793269 0 36228ft 310kts
14-Dec-17 14:17 37.336642 -106.783238 0 36240ft 320kts
14-Dec-17 14:18 37.426415 -106.772909 0 36240ft 328kts
14-Dec-17 14:19 37.517672 -106.762401 0 36239ft 334kts
14-Dec-17 14:20 37.610394 -106.751702 0 36238ft 337kts
14-Dec-17 14:21 37.703856 -106.740890 0 36237ft 340kts
14-Dec-17 14:22 37.796476 -106.730026 359 36237ft 334kts
14-Dec-17 14:23 37.888886 -106.719389 359 36159ft 339kts
14-Dec-17 14:24 37.982324 -106.708507 359 36155ft 340kts
14-Dec-17 14:25 38.074235 -106.697775 359 35604ft 333kts
14-Dec-17 14:26 38.157935 -106.687951 358 34137ft 316kts
14-Dec-17 14:27 38.240841 -106.678183 358 32570ft 289kts
14-Dec-17 14:28 38.317782 -106.669131 357 30989ft 272kts
14-Dec-17 14:29 38.390818 -106.660552 357 29427ft 259kts
14-Dec-17 14:30 38.464499 -106.651963 358 27928ft 279kts
14-Dec-17 14:31 38.543255 -106.642623 358 26155ft 280kts
14-Dec-17 14:32 38.619905 -106.633576 359 23266ft 287kts
14-Dec-17 14:33 38.700103 -106.624081 0 21290ft 300kts
14-Dec-17 14:34 38.786658 -106.613772 2 19315ft 329kts
14-Dec-17 14:35 38.878252 -106.602794 3 17370ft 330kts
14-Dec-17 14:36 38.962373 -106.592695 4 16930ft 291kts
14-Dec-17 14:37 39.044068 -106.582913 5 16924ft 297kts
14-Dec-17 14:38 39.117153 -106.616403 329 16951ft 294kts
14-Dec-17 14:39 39.184814 -106.672567 326 16981ft 287kts
14-Dec-17 14:40 39.250807 -106.729483 326 16024ft 289kts
14-Dec-17 14:41 39.314969 -106.785461 325 14524ft 272kts
14-Dec-17 14:42 39.373569 -106.836834 325 13978ft 226kts
14-Dec-17 14:43 39.421245 -106.878737 324 13906ft 201kts
14-Dec-17 14:44 39.415034 -106.942202 218 13421ft 192kts
14-Dec-17 14:45 39.369005 -106.934963 168 12879ft 152kts
14-Dec-17 14:46 39.329142 -106.919488 163 11691ft 138kts
14-Dec-17 14:47 39.292016 -106.901473 159 10071ft 148kts
14-Dec-17 14:48 39.254102 -106.883602 161 8279ft 141kts
14-Dec-17 14:49 39.223132 -106.868893 160 7777ft 60kts
14-Dec-17 14:50 39.220848 -106.866573 108 7777ft 3kts
14-Dec-17 14:51 39.221148 -106.865833 276 7777ft 3kts
14-Dec-17 14:52 39.221141 -106.865874 253 7777ft 0kts
14-Dec-17 14:53 39.221141 -106.865874 253 7777ft 0kts
14-Dec-17 14:54 39.221141 -106.865874 253 7777ft 0kts

Navigation Log

Ident Type
Flight plan parsing failed, navigation log unavailable